Time;durP1;ratioP1;P1;durP2;ratioP2;P2;SDS_P1;SDS_P2;PMS_P1;PMS_P2;Temp;Humidity;BMP_temperature;BMP_pressure;BME280_temperature;BME280_humidity;BME280_pressure;Samples;Min_cycle;Max_cycle;Signal;HPM_P1;HPM_P2
2021/03/16 00:01:34;;;;;;;;;;;24.00;39.10;;;;;;1570721;73;1184;-60
2021/03/16 00:03:36;;;;;;;;;;;24.10;39.10;;;;;;1572254;73;690;-60
2021/03/16 00:05:38;;;;;;;;;;;24.00;38.90;;;;;;1582828;73;752;-58
2021/03/16 00:07:40;;;;;;;;;;;24.20;38.90;;;;;;1581430;73;791;-62
2021/03/16 00:09:42;;;;;;;;;;;24.20;39.10;;;;;;1578692;73;1947;-60
2021/03/16 00:11:43;;;;;;;;;;;24.20;39.10;;;;;;1581452;73;1114;-60
2021/03/16 00:13:45;;;;;;;;;;;24.10;39.20;;;;;;1571028;73;774;-60
2021/03/16 00:15:47;;;;;;;;;;;24.10;39.20;;;;;;1573196;73;1005;-60
2021/03/16 00:17:49;;;;;;;;;;;24.00;39.20;;;;;;1574390;73;644;-60
2021/03/16 00:19:51;;;;;;;;;;;24.00;39.40;;;;;;1575555;73;648;-59
2021/03/16 00:21:53;;;;;;;;;;;23.90;39.40;;;;;;1567974;74;1136;-61
2021/03/16 00:23:55;;;;;;;;;;;24.00;39.30;;;;;;1589497;73;730;-61
2021/03/16 00:25:57;;;;;;;;;;;23.90;39.40;;;;;;1584013;73;873;-61
2021/03/16 00:27:58;;;;;;;;;;;24.00;39.30;;;;;;1577215;73;803;-60
2021/03/16 00:30:00;;;;;;;;;;;23.90;39.50;;;;;;1577241;73;1928;-62
2021/03/16 00:32:02;;;;;;;;;;;24.00;39.50;;;;;;1578741;73;1117;-59
2021/03/16 00:34:04;;;;;;;;;;;24.00;39.40;;;;;;1573023;73;689;-61
2021/03/16 00:36:06;;;;;;;;;;;24.00;39.20;;;;;;1569706;74;659;-58
2021/03/16 00:38:08;;;;;;;;;;;24.00;39.20;;;;;;1575035;73;798;-60
2021/03/16 00:40:10;;;;;;;;;;;24.10;39.40;;;;;;1571723;73;786;-59
2021/03/16 00:42:12;;;;;;;;;;;24.00;39.30;;;;;;1574444;73;1132;-59
2021/03/16 00:44:14;;;;;;;;;;;24.00;39.40;;;;;;1572586;74;769;-60
2021/03/16 00:46:16;;;;;;;;;;;24.00;39.30;;;;;;1573546;73;709;-60
2021/03/16 00:48:18;;;;;;;;;;;24.00;39.40;;;;;;1574861;73;1941;-58
2021/03/16 00:50:20;;;;;;;;;;;24.00;39.40;;;;;;1574715;73;705;-61
2021/03/16 00:52:22;;;;;;;;;;;24.10;39.70;;;;;;1575042;73;1163;-60
2021/03/16 00:54:24;;;;;;;;;;;24.20;39.50;;;;;;1572739;73;811;-59
2021/03/16 00:56:25;;;;;;;;;;;24.10;39.30;;;;;;1576284;73;697;-60
2021/03/16 00:58:28;;;;;;;;;;;24.30;39.50;;;;;;1582106;73;830;-59
2021/03/16 01:00:30;;;;;;;;;;;24.20;39.20;;;;;;1590069;73;782;-59
2021/03/16 01:02:31;;;;;;;;;;;24.20;39.20;;;;;;1583035;74;1172;-59
2021/03/16 01:04:33;;;;;;;;;;;24.30;39.20;;;;;;1586749;73;653;-61
2021/03/16 01:06:35;;;;;;;;;;;24.30;39.10;;;;;;1587936;73;719;-63
2021/03/16 01:08:37;;;;;;;;;;;24.30;39.00;;;;;;1592969;73;1956;-60
2021/03/16 01:10:39;;;;;;;;;;;24.40;38.90;;;;;;1591060;73;705;-60
2021/03/16 01:12:41;;;;;;;;;;;24.30;38.90;;;;;;1585619;73;1139;-60
2021/03/16 01:14:43;;;;;;;;;;;24.30;38.90;;;;;;1584896;73;742;-62
2021/03/16 01:16:45;;;;;;;;;;;24.30;38.90;;;;;;1583539;73;937;-61
2021/03/16 01:18:47;;;;;;;;;;;24.30;38.90;;;;;;1588954;73;660;-59
2021/03/16 01:20:49;;;;;;;;;;;24.30;39.00;;;;;;1587237;73;665;-58
2021/03/16 01:22:51;;;;;;;;;;;24.20;39.00;;;;;;1586997;73;1131;-56
2021/03/16 01:24:52;;;;;;;;;;;24.20;39.20;;;;;;1587709;73;844;-59
2021/03/16 01:26:54;;;;;;;;;;;24.20;39.30;;;;;;1585870;74;748;-62
2021/03/16 01:28:56;;;;;;;;;;;24.20;39.30;;;;;;1583115;73;1926;-59
2021/03/16 01:30:58;;;;;;;;;;;24.10;39.40;;;;;;1584017;74;809;-60
2021/03/16 01:33:00;;;;;;;;;;;24.00;39.40;;;;;;1585147;73;1080;-59
2021/03/16 01:35:02;;;;;;;;;;;24.00;39.50;;;;;;1586552;73;809;-59
2021/03/16 01:37:04;;;;;;;;;;;23.90;39.60;;;;;;1588864;73;684;-59
2021/03/16 01:39:06;;;;;;;;;;;23.80;39.80;;;;;;1587853;73;781;-61
2021/03/16 01:41:08;;;;;;;;;;;23.90;39.90;;;;;;1580860;73;759;-60
2021/03/16 01:43:13;;;;;;;;;;;23.90;40.00;;;;;;1583655;73;1118;-58
2021/03/16 01:45:16;;;;;;;;;;;23.90;40.00;;;;;;1576470;73;667;-60
2021/03/16 01:47:19;;;;;;;;;;;24.00;39.80;;;;;;1583659;73;743;-58
2021/03/16 01:49:21;;;;;;;;;;;24.00;39.60;;;;;;1589466;73;1931;-60
2021/03/16 01:51:23;;;;;;;;;;;24.10;39.60;;;;;;1587764;73;1155;-60
2021/03/16 01:53:25;;;;;;;;;;;24.10;39.50;;;;;;1585464;73;763;-60
2021/03/16 01:55:28;;;;;;;;;;;24.00;39.50;;;;;;1586091;74;719;-60
2021/03/16 01:57:29;;;;;;;;;;;24.10;39.50;;;;;;1589074;73;772;-58
2021/03/16 01:59:31;;;;;;;;;;;24.10;39.60;;;;;;1582750;73;754;-60
2021/03/16 02:01:33;;;;;;;;;;;24.10;39.50;;;;;;1606059;73;1120;-59
2021/03/16 02:03:35;;;;;;;;;;;24.20;39.40;;;;;;1583225;73;766;-59
2021/03/16 02:05:38;;;;;;;;;;;24.10;39.40;;;;;;1598607;73;814;-57
2021/03/16 02:07:41;;;;;;;;;;;24.20;39.40;;;;;;1583830;73;791;-58
2021/03/16 02:09:57;;;;;;;;;;;24.00;39.50;;;;;;1584537;73;1923;-58
2021/03/16 02:12:00;;;;;;;;;;;24.00;39.60;;;;;;1585064;73;1108;-60
2021/03/16 02:14:19;;;;;;;;;;;23.90;39.50;;;;;;1591985;73;784;-61
2021/03/16 02:16:25;;;;;;;;;;;24.00;39.50;;;;;;1583709;73;762;-62
2021/03/16 02:18:28;;;;;;;;;;;24.10;39.50;;;;;;1573742;73;776;-62
2021/03/16 02:20:48;;;;;;;;;;;24.20;39.40;;;;;;1598468;73;769;-60
2021/03/16 02:22:50;;;;;;;;;;;24.10;39.40;;;;;;1590847;73;1108;-60
2021/03/16 02:24:54;;;;;;;;;;;24.10;39.40;;;;;;1610438;73;804;-60
2021/03/16 02:27:15;;;;;;;;;;;24.20;39.40;;;;;;1585893;73;782;-60
2021/03/16 02:29:18;;;;;;;;;;;24.20;39.40;;;;;;1580431;73;1933;-59
2021/03/16 02:31:20;;;;;;;;;;;24.10;39.40;;;;;;1582441;73;1131;-61
2021/03/16 02:33:23;;;;;;;;;;;24.10;39.40;;;;;;1587337;73;753;-60
2021/03/16 02:35:25;;;;;;;;;;;24.20;39.40;;;;;;1590713;73;778;-59
2021/03/16 02:37:27;;;;;;;;;;;24.20;39.40;;;;;;1584915;73;825;-60
2021/03/16 02:39:29;;;;;;;;;;;24.20;39.40;;;;;;1582474;73;767;-60
2021/03/16 02:41:31;;;;;;;;;;;24.20;39.40;;;;;;1584124;73;1135;-60
2021/03/16 02:43:33;;;;;;;;;;;24.20;39.30;;;;;;1576439;73;708;-60
2021/03/16 02:45:35;;;;;;;;;;;24.10;39.40;;;;;;1581685;73;804;-60
2021/03/16 02:47:40;;;;;;;;;;;24.20;39.50;;;;;;1583890;73;836;-59
2021/03/16 02:49:42;;;;;;;;;;;24.20;39.40;;;;;;1599903;73;1917;-58
2021/03/16 02:51:44;;;;;;;;;;;24.20;39.40;;;;;;1583861;73;1160;-59
2021/03/16 02:53:46;;;;;;;;;;;24.30;39.30;;;;;;1593122;73;821;-59
2021/03/16 02:55:48;;;;;;;;;;;24.30;39.20;;;;;;1607104;73;946;-60
2021/03/16 02:57:50;;;;;;;;;;;24.30;39.10;;;;;;1591251;73;740;-57
2021/03/16 02:59:51;;;;;;;;;;;24.30;39.10;;;;;;1591564;73;716;-61
2021/03/16 03:01:53;;;;;;;;;;;24.30;39.00;;;;;;1590692;73;1171;-60
2021/03/16 03:03:55;;;;;;;;;;;24.30;39.10;;;;;;1596923;73;695;-59
2021/03/16 03:05:57;;;;;;;;;;;24.30;39.00;;;;;;1601075;73;735;-60
2021/03/16 03:07:59;;;;;;;;;;;24.30;39.00;;;;;;1589502;73;726;-59
2021/03/16 03:10:01;;;;;;;;;;;24.20;38.90;;;;;;1595503;73;1940;-59
2021/03/16 03:12:04;;;;;;;;;;;24.30;39.00;;;;;;1589820;73;1136;-60
2021/03/16 03:14:06;;;;;;;;;;;24.20;38.90;;;;;;1587025;73;723;-60
2021/03/16 03:16:08;;;;;;;;;;;24.30;38.90;;;;;;1592955;73;755;-59
2021/03/16 03:18:10;;;;;;;;;;;24.20;38.70;;;;;;1590875;73;771;-59
2021/03/16 03:20:12;;;;;;;;;;;24.30;38.90;;;;;;1591349;73;725;-57
2021/03/16 03:22:21;;;;;;;;;;;24.30;39.00;;;;;;1585065;73;1130;-60
2021/03/16 03:24:24;;;;;;;;;;;24.30;39.10;;;;;;1590637;73;734;-61
2021/03/16 03:26:36;;;;;;;;;;;24.20;39.10;;;;;;1577456;73;846;-58
2021/03/16 03:28:38;;;;;;;;;;;24.20;39.00;;;;;;1552314;71;217904;-67
2021/03/16 03:30:40;;;;;;;;;;;24.20;39.00;;;;;;1527627;76;1958;-66
2021/03/16 03:32:42;;;;;;;;;;;24.20;39.00;;;;;;1544089;76;772;-66
2021/03/16 03:34:44;;;;;;;;;;;24.10;39.20;;;;;;1534792;76;751;-67
2021/03/16 03:36:46;;;;;;;;;;;24.10;39.20;;;;;;1531689;76;739;-66
2021/03/16 03:38:48;;;;;;;;;;;24.00;39.20;;;;;;1508274;77;1201;-67
2021/03/16 03:40:50;;;;;;;;;;;24.00;39.30;;;;;;1508264;77;773;-68
2021/03/16 03:42:53;;;;;;;;;;;24.00;39.40;;;;;;1511797;77;749;-66
2021/03/16 03:44:55;;;;;;;;;;;24.00;39.60;;;;;;1505080;77;1074;-66
2021/03/16 03:46:57;;;;;;;;;;;23.90;39.80;;;;;;1506675;77;693;-65
2021/03/16 03:48:59;;;;;;;;;;;23.90;39.90;;;;;;1503113;77;708;-66
2021/03/16 03:51:03;;;;;;;;;;;23.80;40.00;;;;;;1507338;77;1959;-66
2021/03/16 03:53:04;;;;;;;;;;;23.80;40.20;;;;;;1505805;77;771;-68
2021/03/16 03:55:07;;;;;;;;;;;23.80;40.20;;;;;;1502995;77;764;-67
2021/03/16 03:57:09;;;;;;;;;;;23.90;40.20;;;;;;1506981;76;1160;-67
2021/03/16 03:59:11;;;;;;;;;;;23.80;40.00;;;;;;1508574;77;781;-67
2021/03/16 04:01:12;;;;;;;;;;;23.70;40.00;;;;;;1503927;77;794;-67
2021/03/16 04:03:14;;;;;;;;;;;23.80;40.00;;;;;;1505122;77;823;-69
2021/03/16 04:05:16;;;;;;;;;;;23.80;40.00;;;;;;1494808;77;765;-67
2021/03/16 04:07:18;;;;;;;;;;;23.80;40.10;;;;;;1503834;78;1208;-65
2021/03/16 04:09:20;;;;;;;;;;;23.70;40.10;;;;;;1497719;77;801;-67
2021/03/16 04:11:22;;;;;;;;;;;23.70;40.00;;;;;;1508842;77;1949;-67
2021/03/16 04:13:24;;;;;;;;;;;23.70;40.20;;;;;;1503364;77;811;-66
2021/03/16 04:15:25;;;;;;;;;;;23.70;40.00;;;;;;1509131;77;809;-66
2021/03/16 04:17:27;;;;;;;;;;;23.70;40.00;;;;;;1511231;76;1157;-68
2021/03/16 04:19:29;;;;;;;;;;;23.70;39.90;;;;;;1511531;77;816;-68
2021/03/16 04:21:31;;;;;;;;;;;23.70;40.00;;;;;;1517587;77;787;-68
2021/03/16 04:23:33;;;;;;;;;;;23.80;40.20;;;;;;1498680;77;817;-67
2021/03/16 04:25:35;;;;;;;;;;;23.80;40.10;;;;;;1504028;77;934;-67
2021/03/16 04:27:37;;;;;;;;;;;23.80;40.10;;;;;;1492925;77;1162;-67
2021/03/16 04:29:39;;;;;;;;;;;23.80;39.90;;;;;;1504411;77;1946;-68
2021/03/16 04:31:40;;;;;;;;;;;23.80;39.40;;;;;;1505343;77;773;-69
2021/03/16 04:33:42;;;;;;;;;;;23.80;39.30;;;;;;1498807;77;766;-69
2021/03/16 04:35:44;;;;;;;;;;;23.80;39.10;;;;;;1499752;77;685;-70
2021/03/16 04:37:46;;;;;;;;;;;23.80;39.00;;;;;;1506189;77;1450;-68
2021/03/16 04:39:48;;;;;;;;;;;23.80;38.80;;;;;;1505520;77;770;-67
2021/03/16 04:41:50;;;;;;;;;;;23.80;38.60;;;;;;1507230;77;792;-70
2021/03/16 04:43:52;;;;;;;;;;;23.70;38.60;;;;;;1506578;77;762;-68
2021/03/16 04:45:53;;;;;;;;;;;23.70;38.60;;;;;;1507259;77;811;-69
2021/03/16 04:47:55;;;;;;;;;;;23.70;38.60;;;;;;1505485;77;1174;-68
2021/03/16 04:49:57;;;;;;;;;;;23.70;38.60;;;;;;1504776;77;1945;-69
2021/03/16 04:51:59;;;;;;;;;;;23.70;38.70;;;;;;1506221;77;807;-68
2021/03/16 04:54:01;;;;;;;;;;;23.70;38.80;;;;;;1502536;77;766;-67
2021/03/16 04:56:03;;;;;;;;;;;23.70;38.70;;;;;;1506422;77;796;-67
2021/03/16 04:58:05;;;;;;;;;;;23.70;38.60;;;;;;1505944;77;1170;-67
2021/03/16 05:00:07;;;;;;;;;;;23.70;38.50;;;;;;1503865;77;774;-71
2021/03/16 05:02:09;;;;;;;;;;;23.60;38.40;;;;;;1506210;77;778;-72
2021/03/16 05:04:11;;;;;;;;;;;23.60;38.40;;;;;;1504268;77;754;-70
2021/03/16 05:06:13;;;;;;;;;;;23.60;38.40;;;;;;1506253;77;818;-70
2021/03/16 05:08:15;;;;;;;;;;;23.60;38.40;;;;;;1501974;77;1257;-71
2021/03/16 05:10:16;;;;;;;;;;;23.60;38.30;;;;;;1500202;77;1941;-70
2021/03/16 05:12:18;;;;;;;;;;;23.60;38.20;;;;;;1500484;77;773;-72
2021/03/16 05:14:20;;;;;;;;;;;23.70;38.20;;;;;;1506617;77;775;-72
2021/03/16 05:16:22;;;;;;;;;;;23.60;38.10;;;;;;1505609;77;757;-71
2021/03/16 05:18:24;;;;;;;;;;;23.60;38.10;;;;;;1504524;77;1118;-70
2021/03/16 05:20:26;;;;;;;;;;;23.60;38.20;;;;;;1507095;77;800;-70
2021/03/16 05:22:28;;;;;;;;;;;23.60;38.10;;;;;;1497504;77;768;-70
2021/03/16 05:24:29;;;;;;;;;;;23.60;38.10;;;;;;1505990;77;791;-71
2021/03/16 05:26:31;;;;;;;;;;;23.60;38.00;;;;;;1506426;77;769;-72
2021/03/16 05:28:33;;;;;;;;;;;23.60;38.00;;;;;;1505304;77;1156;-70
2021/03/16 05:30:35;;;;;;;;;;;23.60;38.00;;;;;;1506388;77;1945;-69
2021/03/16 05:32:38;;;;;;;;;;;23.60;38.00;;;;;;1503464;77;752;-67
2021/03/16 05:34:40;;;;;;;;;;;23.60;38.00;;;;;;1506412;77;713;-69
2021/03/16 05:36:42;;;;;;;;;;;23.60;38.00;;;;;;1500280;77;829;-70
2021/03/16 05:38:44;;;;;;;;;;;23.60;37.90;;;;;;1502747;77;1224;-69
2021/03/16 05:40:46;;;;;;;;;;;23.60;38.00;;;;;;1505449;77;730;-68
2021/03/16 05:42:48;;;;;;;;;;;23.60;37.90;;;;;;1502043;77;738;-69
2021/03/16 05:44:50;;;;;;;;;;;23.60;37.80;;;;;;1505216;77;812;-67
2021/03/16 05:46:52;;;;;;;;;;;23.60;37.80;;;;;;1507297;77;790;-69
2021/03/16 05:48:54;;;;;;;;;;;23.60;37.90;;;;;;1504892;77;1097;-68
2021/03/16 05:50:57;;;;;;;;;;;23.60;37.90;;;;;;1508373;77;1931;-70
2021/03/16 05:52:59;;;;;;;;;;;23.60;38.00;;;;;;1507891;77;1859;-70
2021/03/16 05:55:02;;;;;;;;;;;23.60;37.90;;;;;;1499270;77;755;-70
2021/03/16 05:57:04;;;;;;;;;;;23.60;37.90;;;;;;1506403;77;1179;-71
2021/03/16 05:59:06;;;;;;;;;;;23.60;37.80;;;;;;1506476;77;816;-71
2021/03/16 06:01:09;;;;;;;;;;;23.60;37.80;;;;;;1506719;77;751;-71
2021/03/16 06:03:11;;;;;;;;;;;23.60;37.80;;;;;;1507860;77;758;-67
2021/03/16 06:05:13;;;;;;;;;;;23.60;38.00;;;;;;1508584;77;794;-68
2021/03/16 06:07:15;;;;;;;;;;;23.60;38.00;;;;;;1504457;77;1238;-66
2021/03/16 06:09:17;;;;;;;;;;;23.60;37.90;;;;;;1498791;77;817;-68
2021/03/16 06:11:19;;;;;;;;;;;23.70;38.00;;;;;;1505808;77;1942;-68
2021/03/16 06:13:22;;;;;;;;;;;23.60;37.70;;;;;;1504563;77;734;-69
2021/03/16 06:15:24;;;;;;;;;;;23.60;37.80;;;;;;1500704;77;736;-69
2021/03/16 06:17:25;;;;;;;;;;;23.60;37.80;;;;;;1492363;77;1138;-68
2021/03/16 06:19:35;;;;;;;;;;;23.60;38.10;;;;;;1490423;77;741;-69
2021/03/16 06:21:37;;;;;;;;;;;23.70;38.20;;;;;;1499660;77;1757;-70
2021/03/16 06:23:39;;;;;;;;;;;23.60;37.90;;;;;;1500623;77;803;-70
2021/03/16 06:25:41;;;;;;;;;;;23.70;37.90;;;;;;1501394;77;817;-68
2021/03/16 06:27:44;;;;;;;;;;;23.70;37.80;;;;;;1507036;77;1170;-69
2021/03/16 06:29:46;;;;;;;;;;;23.70;37.80;;;;;;1474404;78;834;-70
2021/03/16 06:31:48;;;;;;;;;;;23.70;38.00;;;;;;1499611;77;1936;-67
2021/03/16 06:33:50;;;;;;;;;;;23.70;38.10;;;;;;1501029;77;691;-69
2021/03/16 06:36:01;;;;;;;;;;;23.70;38.00;;;;;;1498086;77;765;-69
2021/03/16 06:38:04;;;;;;;;;;;23.70;37.80;;;;;;1500407;77;1288;-69
2021/03/16 06:40:06;;;;;;;;;;;23.70;37.90;;;;;;1507250;77;737;-69
2021/03/16 06:42:08;;;;;;;;;;;23.70;38.00;;;;;;1511931;77;751;-68
2021/03/16 06:44:10;;;;;;;;;;;23.80;38.10;;;;;;1514235;77;744;-69
2021/03/16 06:46:12;;;;;;;;;;;23.80;38.00;;;;;;1494757;77;1219;-67
2021/03/16 06:48:17;;;;;;;;;;;23.80;37.80;;;;;;1501754;77;1158;-66
2021/03/16 06:50:20;;;;;;;;;;;23.80;37.60;;;;;;1511355;77;791;-65
2021/03/16 06:52:24;;;;;;;;;;;23.80;37.40;;;;;;1505806;77;1354;-65
2021/03/16 06:54:26;;;;;;;;;;;23.80;37.30;;;;;;1506468;77;1156;-67
2021/03/16 06:56:28;;;;;;;;;;;23.80;37.10;;;;;;1506590;77;771;-65
2021/03/16 06:58:31;;;;;;;;;;;23.80;37.10;;;;;;1506338;77;1149;-61
2021/03/16 07:00:33;;;;;;;;;;;23.80;37.00;;;;;;1508946;77;775;-66
2021/03/16 07:02:34;;;;;;;;;;;23.80;37.10;;;;;;1506805;77;776;-69
2021/03/16 07:04:38;;;;;;;;;;;23.80;36.80;;;;;;1507048;77;752;-66
2021/03/16 07:06:40;;;;;;;;;;;23.90;37.00;;;;;;1505994;77;1745;-66
2021/03/16 07:08:42;;;;;;;;;;;23.90;37.00;;;;;;1506513;77;1132;-64
2021/03/16 07:10:44;;;;;;;;;;;23.90;37.00;;;;;;1504321;77;1946;-65
2021/03/16 07:12:46;;;;;;;;;;;24.00;36.70;;;;;;1507274;77;671;-65
2021/03/16 07:14:48;;;;;;;;;;;24.00;36.60;;;;;;1502514;77;758;-65
2021/03/16 07:16:51;;;;;;;;;;;24.00;36.60;;;;;;1503603;77;771;-67
2021/03/16 07:18:53;;;;;;;;;;;23.90;36.40;;;;;;1506639;77;1083;-66
2021/03/16 07:20:56;;;;;;;;;;;23.80;36.40;;;;;;1502471;77;801;-66
2021/03/16 07:22:58;;;;;;;;;;;23.80;36.50;;;;;;1514651;77;771;-72
2021/03/16 07:25:00;;;;;;;;;;;23.80;36.50;;;;;;1506017;77;914;-69
2021/03/16 07:27:02;;;;;;;;;;;23.80;36.50;;;;;;1499902;77;1161;-67
2021/03/16 07:29:04;;;;;;;;;;;23.80;36.30;;;;;;1488471;78;753;-66
2021/03/16 07:31:06;;;;;;;;;;;23.80;36.20;;;;;;1505503;77;1938;-67
2021/03/16 07:33:08;;;;;;;;;;;23.80;36.20;;;;;;1506285;77;766;-66
2021/03/16 07:35:10;;;;;;;;;;;23.70;36.10;;;;;;1501856;77;765;-66
2021/03/16 07:37:12;;;;;;;;;;;23.70;36.20;;;;;;1503685;77;1249;-66
2021/03/16 07:39:18;;;;;;;;;;;23.70;36.20;;;;;;1506309;77;813;-67
2021/03/16 07:41:19;;;;;;;;;;;23.70;36.20;;;;;;1500528;77;1838;-66
2021/03/16 07:43:23;;;;;;;;;;;23.80;36.20;;;;;;1506277;77;750;-68
2021/03/16 07:45:25;;;;;;;;;;;23.70;36.10;;;;;;1503421;77;1111;-65
2021/03/16 07:47:34;;;;;;;;;;;23.70;36.10;;;;;;1505463;77;1125;-62
2021/03/16 07:49:36;;;;;;;;;;;23.70;36.00;;;;;;1505480;77;798;-66
2021/03/16 07:51:40;;;;;;;;;;;23.60;36.00;;;;;;1508385;77;1946;-66
2021/03/16 07:53:42;;;;;;;;;;;23.70;36.00;;;;;;1507292;77;763;-68
2021/03/16 07:55:44;;;;;;;;;;;23.60;35.90;;;;;;1501830;77;765;-65
2021/03/16 07:57:46;;;;;;;;;;;23.60;36.00;;;;;;1505741;77;1182;-65
2021/03/16 07:59:49;;;;;;;;;;;23.60;35.90;;;;;;1506470;77;765;-65
2021/03/16 08:01:51;;;;;;;;;;;23.70;36.00;;;;;;1502097;77;1102;-64
2021/03/16 08:03:54;;;;;;;;;;;23.70;36.00;;;;;;1506092;77;626;-66
2021/03/16 08:05:56;;;;;;;;;;;23.60;35.90;;;;;;1502959;77;1469;-65
2021/03/16 08:07:58;;;;;;;;;;;23.60;35.90;;;;;;1506452;77;1151;-65
2021/03/16 08:10:00;;;;;;;;;;;23.60;35.80;;;;;;1506810;77;904;-66
2021/03/16 08:12:02;;;;;;;;;;;23.60;35.90;;;;;;1506352;77;1948;-68
2021/03/16 08:14:04;;;;;;;;;;;23.60;35.80;;;;;;1505504;77;781;-66
2021/03/16 08:16:10;;;;;;;;;;;23.60;35.80;;;;;;1501786;77;821;-67
2021/03/16 08:18:12;;;;;;;;;;;23.60;35.80;;;;;;1496192;77;1166;-66
2021/03/16 08:20:16;;;;;;;;;;;23.60;35.80;;;;;;1501652;77;702;-66
2021/03/16 08:22:19;;;;;;;;;;;23.60;35.70;;;;;;1498953;77;1461;-69
2021/03/16 08:24:21;;;;;;;;;;;23.60;35.80;;;;;;1513949;77;802;-65
2021/03/16 08:26:23;;;;;;;;;;;23.60;35.70;;;;;;1508924;77;766;-65
2021/03/16 08:28:25;;;;;;;;;;;23.60;35.70;;;;;;1505785;77;1138;-66
2021/03/16 08:30:28;;;;;;;;;;;23.60;35.70;;;;;;1506458;77;803;-65
2021/03/16 08:32:30;;;;;;;;;;;23.60;35.60;;;;;;1506409;77;1961;-66
2021/03/16 08:34:32;;;;;;;;;;;23.60;35.70;;;;;;1505717;77;800;-66
2021/03/16 08:36:40;;;;;;;;;;;23.60;35.60;;;;;;1502489;77;727;-65
2021/03/16 08:38:43;;;;;;;;;;;23.60;35.60;;;;;;1505298;77;1281;-65
2021/03/16 08:40:45;;;;;;;;;;;23.60;35.60;;;;;;1496349;77;765;-65
2021/03/16 08:42:47;;;;;;;;;;;23.60;35.50;;;;;;1501895;77;760;-64
2021/03/16 08:44:49;;;;;;;;;;;23.60;35.40;;;;;;1505543;77;795;-68
2021/03/16 08:46:51;;;;;;;;;;;23.60;35.40;;;;;;1509217;77;820;-65
2021/03/16 08:48:53;;;;;;;;;;;23.60;35.30;;;;;;1500972;77;1080;-65
2021/03/16 08:50:55;;;;;;;;;;;23.60;35.40;;;;;;1507595;77;784;-66
2021/03/16 08:52:57;;;;;;;;;;;23.60;35.40;;;;;;1499969;77;1945;-65
2021/03/16 08:54:59;;;;;;;;;;;23.60;35.40;;;;;;1502078;77;788;-65
2021/03/16 08:57:01;;;;;;;;;;;23.60;35.50;;;;;;1506394;77;1170;-66
2021/03/16 08:59:05;;;;;;;;;;;23.60;35.50;;;;;;1509823;77;745;-65
2021/03/16 09:01:07;;;;;;;;;;;23.60;35.50;;;;;;1518499;77;1632;-65
2021/03/16 09:03:09;;;;;;;;;;;23.50;35.50;;;;;;1510651;77;772;-66
2021/03/16 09:05:20;;;;;;;;;;;23.50;35.50;;;;;;1509708;77;774;-65
2021/03/16 09:07:25;;;;;;;;;;;23.50;35.60;;;;;;1489508;77;1166;-65
2021/03/16 09:09:28;;;;;;;;;;;23.50;35.50;;;;;;1506733;77;798;-69
2021/03/16 09:11:40;;;;;;;;;;;23.50;35.50;;;;;;1495435;77;1950;-65
2021/03/16 09:13:40;;;;;;;;;;;23.60;35.50;;;;;;1503982;77;1713;-65
2021/03/16 09:15:44;;;;;;;;;;;23.50;35.60;;;;;;1502884;77;809;-67
2021/03/16 09:17:47;;;;;;;;;;;23.50;35.50;;;;;;1519029;76;1164;-65
2021/03/16 09:19:49;;;;;;;;;;;23.50;35.50;;;;;;1519502;77;1102;-66
2021/03/16 09:21:59;;;;;;;;;;;23.60;35.50;;;;;;1515555;77;815;-66
2021/03/16 09:24:02;;;;;;;;;;;23.50;35.50;;;;;;1507690;77;778;-68
2021/03/16 09:26:04;;;;;;;;;;;23.50;35.50;;;;;;1510966;77;755;-66
2021/03/16 09:28:10;;;;;;;;;;;23.50;35.50;;;;;;1535401;73;2127;-68
2021/03/16 09:30:12;;;;;;;;;;;23.50;35.50;;;;;;1585961;74;1494;-65
2021/03/16 09:32:14;;;;;;;;;;;23.50;35.50;;;;;;1560944;74;1935;-68
2021/03/16 09:34:16;;;;;;;;;;;23.50;35.50;;;;;;1562849;74;774;-65
2021/03/16 09:36:19;;;;;;;;;;;23.50;35.50;;;;;;1561599;74;813;-66
2021/03/16 09:38:21;;;;;;;;;;;23.50;35.50;;;;;;1585321;74;1257;-67
2021/03/16 09:40:33;;;;;;;;;;;23.50;35.50;;;;;;1571302;74;810;-68
2021/03/16 09:42:45;;;;;;;;;;;23.50;35.60;;;;;;1560844;74;752;-67
2021/03/16 09:44:47;;;;;;;;;;;23.50;35.50;;;;;;1587652;74;773;-64
2021/03/16 09:46:49;;;;;;;;;;;23.50;35.50;;;;;;1563688;74;760;-65
2021/03/16 09:48:52;;;;;;;;;;;23.50;35.50;;;;;;1565790;74;1227;-67
2021/03/16 09:50:54;;;;;;;;;;;23.60;35.50;;;;;;1564820;74;824;-67
2021/03/16 09:52:59;;;;;;;;;;;23.50;35.50;;;;;;1560375;74;1938;-67
2021/03/16 09:55:01;;;;;;;;;;;23.50;35.50;;;;;;1566737;74;766;-66
2021/03/16 09:57:09;;;;;;;;;;;23.50;35.40;;;;;;1570094;74;829;-67
2021/03/16 09:59:11;;;;;;;;;;;23.50;35.30;;;;;;1573499;74;1113;-67
2021/03/16 10:01:13;;;;;;;;;;;23.60;35.40;;;;;;1532606;75;1143;-67
2021/03/16 10:03:15;;;;;;;;;;;23.60;35.30;;;;;;1574474;74;797;-69
2021/03/16 10:05:17;;;;;;;;;;;23.60;35.30;;;;;;1575491;74;818;-66
2021/03/16 10:07:30;;;;;;;;;;;23.50;35.20;;;;;;1571471;74;812;-67
2021/03/16 10:09:32;;;;;;;;;;;23.60;35.20;;;;;;1573367;74;1139;-67
2021/03/16 10:11:33;;;;;;;;;;;23.50;35.10;;;;;;1534893;75;1933;-67
2021/03/16 10:13:37;;;;;;;;;;;23.50;35.20;;;;;;1578674;74;742;-67
2021/03/16 10:15:42;;;;;;;;;;;23.60;35.20;;;;;;1578377;74;1552;-67
2021/03/16 10:17:44;;;;;;;;;;;23.50;35.10;;;;;;1566292;74;1191;-67
2021/03/16 10:19:46;;;;;;;;;;;23.60;35.00;;;;;;1561968;74;1138;-66
2021/03/16 10:21:48;;;;;;;;;;;23.60;35.00;;;;;;1543623;75;1127;-64
2021/03/16 10:23:50;;;;;;;;;;;23.50;35.00;;;;;;1574962;74;792;-67
2021/03/16 10:25:59;;;;;;;;;;;23.60;35.00;;;;;;1583244;74;853;-68
2021/03/16 10:28:05;;;;;;;;;;;23.60;35.00;;;;;;1572513;74;1161;-67
2021/03/16 10:30:10;;;;;;;;;;;23.50;35.10;;;;;;1579347;74;660;-68
2021/03/16 10:32:12;;;;;;;;;;;23.50;35.10;;;;;;1573136;74;1930;-67
2021/03/16 10:34:14;;;;;;;;;;;23.50;35.00;;;;;;1581947;74;813;-67
2021/03/16 10:36:17;;;;;;;;;;;23.60;35.00;;;;;;1566659;74;764;-66
2021/03/16 10:38:19;;;;;;;;;;;23.50;35.00;;;;;;1576710;74;1205;-67
2021/03/16 10:40:20;;;;;;;;;;;23.50;35.00;;;;;;1569232;74;1155;-68
2021/03/16 10:42:22;;;;;;;;;;;23.50;35.00;;;;;;1577377;74;810;-67
2021/03/16 10:44:24;;;;;;;;;;;23.50;35.00;;;;;;1573100;74;733;-69
2021/03/16 10:46:26;;;;;;;;;;;23.50;34.90;;;;;;1570895;74;756;-67
2021/03/16 10:48:28;;;;;;;;;;;23.60;34.90;;;;;;1565664;74;1227;-67
2021/03/16 10:50:30;;;;;;;;;;;23.50;34.80;;;;;;1568876;74;751;-67
2021/03/16 10:52:32;;;;;;;;;;;23.50;34.90;;;;;;1568533;74;1929;-68
2021/03/16 10:54:36;;;;;;;;;;;23.60;34.90;;;;;;1551025;75;767;-67
2021/03/16 10:56:37;;;;;;;;;;;23.60;35.00;;;;;;1517818;77;1612;-66
2021/03/16 10:58:39;;;;;;;;;;;23.60;35.00;;;;;;1500855;77;1197;-69
2021/03/16 11:00:41;;;;;;;;;;;23.50;34.90;;;;;;1543935;75;643;-65
2021/03/16 11:02:43;;;;;;;;;;;23.60;35.00;;;;;;1506180;76;798;-66
2021/03/16 11:04:45;;;;;;;;;;;23.50;35.00;;;;;;1533410;75;810;-68
2021/03/16 11:06:47;;;;;;;;;;;23.50;34.90;;;;;;1514782;77;759;-64
2021/03/16 11:08:49;;;;;;;;;;;23.60;35.00;;;;;;1541305;75;1114;-68
2021/03/16 11:10:50;;;;;;;;;;;23.60;35.00;;;;;;1537721;75;755;-67
2021/03/16 11:12:53;;;;;;;;;;;23.50;34.80;;;;;;1537236;75;1950;-64
2021/03/16 11:14:54;;;;;;;;;;;23.60;34.90;;;;;;1543578;75;760;-65
2021/03/16 11:16:56;;;;;;;;;;;23.70;33.80;;;;;;1552010;75;690;-65
2021/03/16 11:18:58;;;;;;;;;;;23.80;32.00;;;;;;1532658;75;1181;-65
2021/03/16 11:21:00;;;;;;;;;;;23.80;31.00;;;;;;1527263;76;735;-65
2021/03/16 11:23:02;;;;;;;;;;;23.80;31.00;;;;;;1523443;77;762;-64
2021/03/16 11:25:04;;;;;;;;;;;23.80;30.00;;;;;;1548504;75;791;-62
2021/03/16 11:27:06;;;;;;;;;;;23.90;29.70;;;;;;1552007;75;692;-65
2021/03/16 11:29:08;;;;;;;;;;;23.90;30.10;;;;;;1532349;75;1117;-64
2021/03/16 11:31:10;;;;;;;;;;;23.80;29.20;;;;;;1535797;75;810;-66
2021/03/16 11:33:12;;;;;;;;;;;23.80;28.90;;;;;;1542724;75;1943;-64
2021/03/16 11:35:14;;;;;;;;;;;23.70;28.40;;;;;;1538231;75;680;-65
2021/03/16 11:37:15;;;;;;;;;;;23.70;28.10;;;;;;1535559;75;807;-65
2021/03/16 11:39:17;;;;;;;;;;;23.80;28.20;;;;;;1535892;75;1202;-66
2021/03/16 11:41:19;;;;;;;;;;;23.70;27.90;;;;;;1529879;75;835;-64
2021/03/16 11:43:21;;;;;;;;;;;23.60;27.50;;;;;;1546250;75;804;-62
2021/03/16 11:45:23;;;;;;;;;;;23.60;27.60;;;;;;1508394;77;778;-65
2021/03/16 11:47:25;;;;;;;;;;;23.60;28.10;;;;;;1541636;75;1333;-64
2021/03/16 11:49:27;;;;;;;;;;;23.70;27.50;;;;;;1539010;75;808;-64
2021/03/16 11:51:29;;;;;;;;;;;23.60;27.50;;;;;;1536921;75;772;-62
2021/03/16 11:53:31;;;;;;;;;;;23.70;27.30;;;;;;1530641;75;1943;-63
2021/03/16 11:55:33;;;;;;;;;;;23.60;27.60;;;;;;1541999;75;759;-65
2021/03/16 11:57:35;;;;;;;;;;;23.60;27.50;;;;;;1521833;77;1259;-65
2021/03/16 11:59:37;;;;;;;;;;;23.70;27.40;;;;;;1513265;77;775;-64
2021/03/16 12:01:39;;;;;;;;;;;23.60;27.00;;;;;;1545431;75;802;-65
2021/03/16 12:03:41;;;;;;;;;;;23.60;27.20;;;;;;1535523;76;775;-65
2021/03/16 12:05:43;;;;;;;;;;;23.60;26.70;;;;;;1540851;75;814;-65
2021/03/16 12:07:45;;;;;;;;;;;23.60;26.90;;;;;;1537659;75;1177;-65
2021/03/16 12:09:47;;;;;;;;;;;23.50;26.90;;;;;;1538798;75;804;-64
2021/03/16 12:11:48;;;;;;;;;;;23.50;26.80;;;;;;1543402;75;814;-65